• Join FlightAware (Why Join?)
  • Login
  • US Flag 
07:51AM EDT


 

Airport Tracker/Info


-or-


 

Live Flight TrackerFlight Track Log ✈ SWA3943 ✈ 12-Apr-2013 ✈ KPHL - KMDW

Flight Track Log - Related Links

Times and Time Zones

All times are in EDT time to prevent confusion due to time zone crossing. See the SWA3943 flight status page for this flight to view local times or setup timezone preferences in your user account.

Time Position Orientation Groundspeed Altitude Reporting Facility
EDT Latitude Longitude Course Direction KTS MPH feet Rate Location/Type
09:59AM 39.8833 -75.2167 89° East 135 155 800  Level Philadelphia TRACON
10:00AM 39.8836 -75.1958 89° East 168 193 1,600 1,200 Climbing FAA TRACON SMA TRACON (SMA)
10:01AM 39.9003 -75.1581 60° Northeast 218 251 2,200 1,380 Climbing FAA TRACON SMA TRACON (SMA)
10:01AM 39.9239 -75.1461 21° North 242 278 3,000 2,400 Climbing FAA TRACON SMA TRACON (SMA)
10:01AM 39.9458 -75.1450 North 259 298 3,800 3,000 Climbing FAA TRACON SMA TRACON (SMA)
10:02AM 39.9708 -75.1431 North 267 307 5,000 3,600 Climbing FAA TRACON SMA TRACON (SMA)
10:02AM 39.9964 -75.1472 353° North 259 298 6,200 3,300 Climbing FAA TRACON SMA TRACON (SMA)
10:02AM 40.0125 -75.1625 324° Northwest 227 261 7,200 2,820 Climbing FAA TRACON SMA TRACON (SMA)
10:03AM 40.0242 -75.1842 305° West 244 281 8,100 2,520 Climbing FAA TRACON SMA TRACON (SMA)
10:03AM 40.0394 -75.2131 305° West 265 305 8,900 2,220 Climbing FAA TRACON SMA TRACON (SMA)
10:03AM 40.0522 -75.2372 305° West 266 306 9,600 1,800 Climbing FAA TRACON SMA TRACON (SMA)
10:04AM 40.0664 -75.2644 304° West 295 339 10,100 1,320 Climbing FAA TRACON SMA TRACON (SMA)
10:04AM 40.0853 -75.3017 304° West 325 374 10,500 1,920 Climbing FAA TRACON SMA TRACON (SMA)
10:04AM 40.1014 -75.3317 305° West 331 381 11,400 2,400 Climbing FAA TRACON SMA TRACON (SMA)
10:05AM 40.1186 -75.3633 305° West 348 400 12,100 2,220 Climbing FAA TRACON SMA TRACON (SMA)
10:05AM 40.1408 -75.4058 304° West 370 426 12,900 1,320 Climbing FAA TRACON SMA TRACON (SMA)
10:05AM 40.1589 -75.4400 305° West 376 433 13,000 300 Climbing FAA TRACON SMA TRACON (SMA)
10:06AM 40.1772 -75.4725 306° West 374 430 13,100 120 Climbing FAA TRACON SMA TRACON (SMA)
10:06AM 40.1997 -75.5169 304° West 368 423 13,100 300 Level FAA TRACON SMA TRACON (SMA)
10:06AM 40.2164 -75.5503 303° West 362 417 13,300 1,620 Climbing FAA TRACON SMA TRACON (SMA)
10:07AM 40.2353 -75.5825 308° West 361 415 14,200 2,820 Climbing FAA TRACON SMA TRACON (SMA)
10:07AM 40.2608 -75.6214 311° West 374 430 15,200 2,520 Climbing FAA TRACON SMA TRACON (SMA)
10:07AM 40.2808 -75.6517 311° West 381 438 15,900 2,400 Climbing FAA TRACON SMA TRACON (SMA)
10:08AM 40.3042 -75.6867 311° West 388 447 16,800 1,800 Climbing FAA TRACON SMA TRACON (SMA)
10:08AM 40.3322 -75.7283 311° West 393 452 17,100 240 Climbing FAA TRACON SMA TRACON (SMA)
10:08AM 40.3550 -75.7614 312° West 395 455 17,000 -180 Descending FAA TRACON SMA TRACON (SMA)
10:09AM 40.3708 -75.7856 311° West 395 455 17,000 120 Level FAA TRACON SMA TRACON (SMA)
10:09AM 40.3914 -75.8125 315° West 389 448 17,100 480 Climbing New York Center
10:10AM 40.4481 -75.9447 299° West 389 448 17,600 1,440 Climbing New York Center
10:11AM 40.4639 -76.0578 280° West 360 414 20,000 2,160 Climbing New York Center
10:12AM 40.4847 -76.1958 281° West 375 432 22,000 2,220 Climbing New York Center
10:13AM 40.5072 -76.3394 282° West 389 448 24,500 2,280 Climbing New York Center
10:14AM 40.5272 -76.4886 280° West 403 464 26,500 1,860 Climbing New York Center
10:15AM 40.5514 -76.6356 282° West 414 476 28,200 1,800 Climbing New York Center
10:16AM 40.5731 -76.7875 281° West 414 476 30,100 1,860 Climbing New York Center
10:17AM 40.5942 -76.9397 280° West 419 482 32,000 1,860 Climbing New York Center
10:18AM 40.6156 -77.0894 281° West 419 482 34,000 1,980 Climbing New York Center
10:19AM 40.6350 -77.2333 280° West 413 475 36,000 960 Climbing New York Center
10:20AM 40.6597 -77.3892 282° West 401 461 36,000 120 Level New York Center
10:21AM 40.6789 -77.5278 280° West 396 456 36,300 540 Climbing New York Center
10:23AM 40.7228 -77.8625 280° West 392 451 38,000 480 Climbing Cleveland Center
10:24AM 40.7428 -78.0042 281° West 392 451 38,000  Level Cleveland Center
10:25AM 40.7603 -78.1406 280° West 392 451 38,000  Level Cleveland Center
10:26AM 40.7778 -78.2825 279° West 392 451 38,000  Level Cleveland Center
10:27AM 40.7972 -78.4244 280° West 392 451 38,000  Level Cleveland Center
10:28AM 40.8167 -78.5694 280° West 392 451 38,000  Level Cleveland Center
10:29AM 40.8336 -78.7114 279° West 392 451 38,000  Level Cleveland Center
10:30AM 40.8547 -78.8536 281° West 392 451 38,000  Level Cleveland Center
10:31AM 40.8733 -78.9958 280° West 392 451 38,000  Level Cleveland Center
10:32AM 40.8897 -79.1411 279° West 392 451 38,000  Level Cleveland Center
10:33AM 40.9083 -79.2836 280° West 392 451 38,000  Level Cleveland Center
10:34AM 40.9264 -79.4317 279° West 398 458 38,000  Level Cleveland Center
10:35AM 40.9425 -79.5744 279° West 403 464 38,000  Level Cleveland Center
10:36AM 40.9603 -79.7169 279° West 403 464 38,000  Level Cleveland Center
10:37AM 40.9758 -79.8597 278° West 403 464 38,000  Level Cleveland Center
10:38AM 40.9956 -80.0053 280° West 408 470 38,000  Level Cleveland Center
10:39AM 41.0106 -80.1511 278° West 408 470 38,000  Level Cleveland Center
10:40AM 41.0278 -80.2942 279° West 408 470 38,000  Level Cleveland Center
10:41AM 41.0428 -80.4372 278° West 408 470 38,000  Level Cleveland Center
10:42AM 41.0594 -80.5803 279° West 408 470 38,000  Level Cleveland Center
10:43AM 41.0739 -80.7236 278° West 403 464 38,000  Level Cleveland Center
10:44AM 41.0903 -80.8642 279° West 403 464 38,000  Level Cleveland Center
10:45AM 41.1044 -81.0075 278° West 403 464 38,000  Level Cleveland Center
10:46AM 41.1206 -81.1703 278° West 403 464 38,000  Level Cleveland Center
10:47AM 41.1322 -81.2972 277° West 402 463 38,000  Level Cleveland Center
10:48AM 41.1500 -81.4408 279° West 402 463 38,000  Level Cleveland Center
10:49AM 41.1656 -81.5872 278° West 402 463 38,000  Level Cleveland Center
10:50AM 41.1786 -81.7336 277° West 407 468 38,000  Level Cleveland Center
10:51AM 41.1939 -81.8828 278° West 407 468 38,000  Level Cleveland Center
10:52AM 41.2086 -82.0322 278° West 407 468 38,000  Level Cleveland Center
10:53AM 41.2231 -82.1981 277° West 412 474 38,000  Level Cleveland Center
10:54AM 41.2375 -82.3447 278° West 410 472 38,000  Level Cleveland Center
10:55AM 41.2497 -82.4942 276° West 409 471 38,000  Level Cleveland Center
10:56AM 41.2622 -82.6272 277° West 409 471 38,000  Level Cleveland Center
10:57AM 41.2761 -82.7769 277° West 409 471 38,000  Level Cleveland Center
10:58AM 41.2878 -82.9236 276° West 404 465 38,000  Level Cleveland Center
10:59AM 41.3011 -83.0708 277° West 409 471 38,000  Level Cleveland Center
11:00AM 41.3164 -83.2317 277° West 403 464 38,000  Level Cleveland Center
11:01AM 41.3275 -83.3758 276° West 403 464 38,000  Level Cleveland Center
11:02AM 41.3406 -83.5258 277° West 403 464 38,000  Level Cleveland Center
11:03AM 41.3511 -83.6731 276° West 408 470 38,000  Level Cleveland Center
11:04AM 41.3639 -83.8203 277° West 408 470 38,000  Level Cleveland Center
11:05AM 41.3764 -83.9622 277° West 403 464 38,000 -420 Level Cleveland Center
11:06AM 41.3867 -84.1067 275° West 403 464 37,200 -1,500 Descending Cleveland Center
11:07AM 41.3956 -84.2233 276° West 403 464 35,100 -2,100 Descending Cleveland Center
11:09AM 41.4200 -84.4925 277° West 376 433 31,200 -1,740 Descending Chicago Center
11:10AM 41.4322 -84.6517 276° West 362 417 30,000 -600 Descending Chicago Center
11:11AM 41.4425 -84.7886 276° West 372 428 30,000  Level Chicago Center
11:12AM 41.4525 -84.9317 275° West 386 444 30,000 -60 Level Chicago Center
11:13AM 41.4625 -85.0733 275° West 386 444 29,900 -1,080 Descending Chicago Center
11:14AM 41.4717 -85.2133 275° West 379 436 27,800 -2,100 Descending Chicago Center
11:15AM 41.4814 -85.3500 275° West 369 425 25,700 -2,040 Descending Chicago Center
11:16AM 41.4894 -85.4828 275° West 357 411 23,700 -1,440 Descending Chicago Center
11:17AM 41.4978 -85.6106 275° West 346 398 22,800 -1,320 Descending Chicago Center
11:18AM 41.5014 -85.7328 272° West 332 382 21,100 -1,680 Descending Chicago Center
11:19AM 41.5053 -85.8475 273° West 313 360 19,400 -1,800 Descending Chicago Center
11:20AM 41.5089 -85.9611 272° West 307 353 17,500 -1,860 Descending Chicago Center
11:21AM 41.5139 -86.0914 273° West 295 339 15,600 -1,800 Descending Chicago Center
11:23AM 41.5169 -86.1978 272° West 287 330 13,900 -1,620 Descending Chicago Center
11:24AM 41.5192 -86.3000 272° West 279 321 12,300 -1,440 Descending Chicago Center
11:25AM 41.5233 -86.4006 273° West 273 314 11,000 -1,140 Descending Chicago Center
11:26AM 41.5217 -86.4994 269° West 269 310 10,000 -540 Descending Chicago Center
11:27AM 41.5200 -86.5989 269° West 268 308 10,000  Level Chicago Center
11:28AM 41.5206 -86.7186 270° West 279 321 10,000  Level Chicago Center
11:29AM 41.5192 -86.8217 269° West 279 321 10,000 -240 Level Chicago Center
11:30AM 41.5186 -86.9206 270° West 268 308 9,600 -780 Descending Chicago Center
11:31AM 41.5317 -87.0136 281° West 259 298 8,500 -1,080 Descending Chicago Center
11:32AM 41.5539 -87.1083 287° West 266 306 7,500 -1,020 Descending Chicago Center
11:33AM 41.5667 -87.2000 281° West 249 287 6,600 -1,140 Descending Chicago TRACON
11:34AM 41.6000 -87.2833 298° West 241 277 5,400 -960 Descending Chicago TRACON
11:35AM 41.6167 -87.3667 285° West 238 274 4,700 -660 Descending Chicago TRACON
11:35AM 41.6169 -87.3828 271° West 239 275 4,700 -600 Level Chicago Center
11:36AM 41.6369 -87.4656 288° West 237 273 4,000 -420 Descending Chicago Center
11:37AM 41.6564 -87.5503 287° West 238 274 3,900 -300 Descending Chicago Center
11:38AM 41.6872 -87.6156 302° West 224 258 3,400 -840 Descending Chicago Center
11:39AM 41.7167 -87.6500 319° Northwest 187 215 2,500 -1,080 Descending Chicago TRACON
11:40AM 41.7500 -87.7000 312° West 135 155 1,600 -840 Descending Chicago TRACON
11:41AM 41.7667 -87.7333 304° West 129 148 900 -720 Descending Chicago TRACON